Aviation Digital Data Service (ADDS)

Output produced by METARs form (2106 UTC 02 August 2021)
found at http://www.aviationweather.gov/metar/data/
 
Forecast for: ZUGY (GUIYANG , CN)
Text: TAF ZUGY 021503Z 0218/0318 05003MPS 6000 SCT033 TX34/0307Z TN20/0222Z
Forecast period: 1800 UTC 02 August 2021 to 1800 UTC 03 August 2021
Forecast type: FROM: standard forecast or significant change
Winds: from the NE (50 degrees) at 7 MPH (6 knots; 3.1 m/s)
Visibility: 4 miles (6 km)
Ceiling: at least 12,000 feet AGL
Clouds: scattered clouds at 3300 feet AGL
Weather: no significant weather forecast for this period